McMinn County Airport

About
Name: McMinn County Airport
Identifier:  MMI/KMMI
Local Time:  23. Aug 00:53 EDT
Location
Flights per Day
0 flights
Distance: 648km (402mi)
Punctuality
0% (0 flights per day delayed)
Delay Average: 13 minutes
Current Weather
 23 C (Humidity: 94%)
  0kt (0km/h / 0mph) from 0°
  Few clouds at 5,000 feet (1,524 meter)
  16km (10 mi.)
 METAR KMMI 230415Z AUTO 00000KT 10SM FEW050 23/22 A3004 RMK A01

Current Flights

Departures
Number Departure To Airline
Arrivals
Number Arrival From Airline

Current Delays

Departures
N/A
Arrivals
N/A

Destinations

Top Destinations
Airport Flights
per week
Seats
per week
  Asheville (AVL) 0 - 0 0
  Panama City (ECP) 0 - 0 0
  Lexington (LEX) 0 - 0 0
  Bluefield (BLF) 0 - 0 0
  Jacksonville (CRG) 0 - 0 0

Airlines & Planes

Top Airlines
Airline Flights
per Day
Seats
per Day
  Flybe Nordic 0 -
  National Airlines 0 -
Jet Charter Inc ( Franklin Lakes Nj ) 0 -
Top Plane Types
Model Flights Seats
Piper PA-31-350 0.0/day - 0